createdAt,value
2019-04-21T00:02:29.653Z,6.10
2019-04-21T00:05:22.622Z,6.27
2019-04-21T00:07:52.774Z,6.40
2019-04-21T00:10:30.141Z,6.37
2019-04-21T00:12:59.847Z,5.53
2019-04-21T00:15:24.465Z,5.67
2019-04-21T00:17:53.907Z,5.80
2019-04-21T00:20:33.120Z,5.17
2019-04-21T00:23:18.143Z,5.73
2019-04-21T00:25:45.810Z,6.17
2019-04-21T00:28:33.296Z,5.53
2019-04-21T00:31:00.494Z,6.07
2019-04-21T00:33:21.416Z,5.50
2019-04-21T00:35:59.274Z,5.73
2019-04-21T00:38:56.313Z,5.10
2019-04-21T00:41:23.582Z,6.07
2019-04-21T00:43:48.968Z,5.60
2019-04-21T00:46:23.013Z,5.53
2019-04-21T00:48:57.520Z,6.10
2019-04-21T00:51:49.805Z,6.00
2019-04-21T00:54:33.105Z,5.50
2019-04-21T00:57:05.346Z,5.50
2019-04-21T00:59:35.001Z,5.30
2019-04-21T01:02:06.446Z,5.37
2019-04-21T01:04:44.283Z,5.53
2019-04-21T01:07:22.113Z,5.77
2019-04-21T01:09:46.272Z,5.17
2019-04-21T01:12:31.156Z,5.40
2019-04-21T01:15:04.071Z,5.97
2019-04-21T01:17:38.819Z,5.23
2019-04-21T01:20:01.168Z,5.63
2019-04-21T01:22:20.316Z,6.10
2019-04-21T01:25:02.964Z,5.57
2019-04-21T01:27:49.519Z,5.70
2019-04-21T01:30:22.249Z,5.00
2019-04-21T01:32:53.383Z,5.37
2019-04-21T01:35:31.251Z,6.10
2019-04-21T01:38:06.903Z,5.40
2019-04-21T01:40:43.120Z,5.70
2019-04-21T01:43:13.588Z,5.13
2019-04-21T01:45:50.475Z,5.50
2019-04-21T01:48:19.539Z,5.43
2019-04-21T01:50:58.169Z,5.63
2019-04-21T01:53:48.633Z,5.67
2019-04-21T01:59:00.880Z,5.73
2019-04-21T02:01:47.187Z,5.63
2019-04-21T02:04:24.112Z,5.40
2019-04-21T02:06:57.367Z,5.47
2019-04-21T02:09:34.028Z,5.50
2019-04-21T02:12:10.586Z,5.63
2019-04-21T02:14:52.599Z,5.70
2019-04-21T02:17:18.699Z,6.00
2019-04-21T02:19:48.035Z,5.17
2019-04-21T02:22:41.029Z,5.90
2019-04-21T02:25:01.006Z,5.97
2019-04-21T02:27:36.585Z,6.00
2019-04-21T02:30:22.298Z,6.00
2019-04-21T02:40:38.495Z,5.70
2019-04-21T02:43:11.359Z,5.97
2019-04-21T02:48:26.046Z,6.00
2019-04-21T02:50:47.036Z,6.27
2019-04-21T02:55:50.830Z,6.00
2019-04-21T02:58:43.790Z,5.67
2019-04-21T03:01:37.798Z,6.47
2019-04-21T03:07:01.684Z,6.40
2019-04-21T03:09:30.992Z,5.50
2019-04-21T03:12:10.901Z,5.93
2019-04-21T03:14:58.106Z,6.37
2019-04-21T03:17:22.394Z,5.67
2019-04-21T03:19:51.985Z,5.90
2019-04-21T03:25:22.922Z,6.60
2019-04-21T03:27:46.530Z,6.63
2019-04-21T03:30:20.007Z,6.60
2019-04-21T03:35:57.458Z,6.40
2019-04-21T03:37:49.704Z,5.90
2019-04-21T03:40:18.658Z,6.17
2019-04-21T03:42:57.165Z,6.07
2019-04-21T03:45:39.120Z,5.83
2019-04-21T03:48:09.279Z,6.33
2019-04-21T03:50:33.530Z,5.83
2019-04-21T03:53:18.655Z,6.27
2019-04-21T03:55:52.903Z,5.77
2019-04-21T03:58:42.040Z,5.80
2019-04-21T04:01:08.048Z,5.87
2019-04-21T04:04:15.071Z,6.17
2019-04-21T04:06:43.064Z,6.07
2019-04-21T04:09:19.009Z,6.67
2019-04-21T04:14:22.923Z,5.67
2019-04-21T04:22:15.382Z,6.37
2019-04-21T04:29:51.478Z,10.23
2019-04-21T04:32:25.182Z,8.80
2019-04-21T04:37:31.967Z,6.53
2019-04-21T04:42:45.606Z,6.70
2019-04-21T04:45:26.549Z,6.40
2019-04-21T04:47:59.164Z,6.07
2019-04-21T04:50:33.950Z,6.17
2019-04-21T04:52:58.677Z,5.77
2019-04-21T04:55:48.083Z,6.00
2019-04-21T04:58:07.234Z,5.80
2019-04-21T05:00:53.743Z,6.27
2019-04-21T05:03:24.243Z,6.40
2019-04-21T05:11:46.054Z,6.50
2019-04-21T05:14:10.009Z,6.37
2019-04-21T05:16:46.757Z,6.43
2019-04-21T05:19:14.865Z,6.77
2019-04-21T05:21:43.895Z,6.17
2019-04-21T05:24:11.843Z,6.43
2019-04-21T05:26:46.002Z,6.03
2019-04-21T05:29:19.453Z,6.23
2019-04-21T05:32:07.810Z,6.30
2019-04-21T05:34:42.604Z,6.43
2019-04-21T05:37:21.726Z,5.57
2019-04-21T05:39:52.594Z,5.97
2019-04-21T05:42:27.275Z,6.60
2019-04-21T05:45:12.284Z,6.33
2019-04-21T05:47:52.037Z,6.47
2019-04-21T05:50:19.117Z,6.00
2019-04-21T05:52:45.964Z,5.90
2019-04-21T05:55:34.674Z,6.07
2019-04-21T05:58:02.573Z,5.73
2019-04-21T06:01:06.096Z,5.60
2019-04-21T06:06:10.806Z,5.97
2019-04-21T06:08:17.940Z,6.00
2019-04-21T06:10:55.615Z,5.23
2019-04-21T06:13:40.720Z,5.37
2019-04-21T06:16:03.483Z,5.23
2019-04-21T06:18:44.848Z,5.63
2019-04-21T06:21:09.833Z,5.70
2019-04-21T06:23:57.031Z,5.60
2019-04-21T06:26:46.936Z,5.67
2019-04-21T06:28:50.359Z,5.53
2019-04-21T06:31:57.381Z,5.07
2019-04-21T06:34:04.926Z,5.00
2019-04-21T06:37:04.369Z,4.80
2019-04-21T06:39:30.726Z,5.07
2019-04-21T06:42:05.266Z,4.37
2019-04-21T06:44:39.855Z,4.50
2019-04-21T06:47:17.933Z,4.50
2019-04-21T06:49:45.678Z,4.17
2019-04-21T06:52:43.500Z,4.47
2019-04-21T06:54:57.053Z,4.43
2019-04-21T07:00:03.818Z,3.90
2019-04-21T07:02:42.282Z,4.20
2019-04-21T07:05:15.462Z,4.13
2019-04-21T07:08:11.002Z,4.33
2019-04-21T07:10:21.002Z,4.43
2019-04-21T07:12:51.343Z,4.47
2019-04-21T07:15:30.816Z,4.07
2019-04-21T07:18:04.433Z,3.73
2019-04-21T07:20:36.725Z,4.17
2019-04-21T07:23:20.485Z,3.93
2019-04-21T07:25:49.677Z,4.03
2019-04-21T07:28:21.920Z,3.93
2019-04-21T07:31:00.680Z,4.03
2019-04-21T07:33:50.632Z,3.80
2019-04-21T07:36:01.297Z,3.80
2019-04-21T07:38:33.215Z,3.67
2019-04-21T07:41:03.510Z,3.70
2019-04-21T07:43:39.339Z,3.60
2019-04-21T07:46:10.111Z,3.80
2019-04-21T07:48:49.251Z,3.60
2019-04-21T07:51:32.148Z,3.63
2019-04-21T07:54:13.939Z,4.07
2019-04-21T07:56:25.548Z,3.80
2019-04-21T07:59:15.190Z,3.80
2019-04-21T08:01:53.516Z,3.90
2019-04-21T08:04:42.435Z,3.43
2019-04-21T08:07:15.141Z,3.40
2019-04-21T08:09:29.481Z,3.67
2019-04-21T08:12:01.404Z,2.83
2019-04-21T08:14:35.624Z,3.13
2019-04-21T08:17:09.812Z,2.97
2019-04-21T08:19:44.208Z,2.83
2019-04-21T08:22:29.160Z,2.70
2019-04-21T08:24:59.107Z,2.77
2019-04-21T08:27:37.170Z,2.57
2019-04-21T08:30:05.005Z,2.90
2019-04-21T08:32:46.555Z,2.90
2019-04-21T08:35:34.059Z,3.10
2019-04-21T08:37:43.167Z,2.77
2019-04-21T08:40:27.102Z,2.97
2019-04-21T08:42:54.029Z,3.03
2019-04-21T08:45:30.872Z,3.33
2019-04-21T08:48:00.445Z,3.40
2019-04-21T08:50:31.267Z,2.73
2019-04-21T08:53:07.550Z,2.93
2019-04-21T08:56:07.799Z,3.00
2019-04-21T08:58:56.174Z,3.10
2019-04-21T09:01:17.779Z,3.00
2019-04-21T09:03:58.772Z,2.97
2019-04-21T09:06:41.988Z,3.30
2019-04-21T09:09:14.709Z,2.70
2019-04-21T09:11:44.472Z,2.47
2019-04-21T09:14:21.210Z,2.60
2019-04-21T09:16:47.514Z,2.80
2019-04-21T09:19:34.017Z,3.10
2019-04-21T09:21:59.466Z,3.20
2019-04-21T09:24:34.906Z,2.67
2019-04-21T09:27:03.762Z,3.10
2019-04-21T09:29:31.005Z,2.90
2019-04-21T09:31:58.043Z,2.97
2019-04-21T09:34:36.510Z,2.50
2019-04-21T09:37:19.024Z,2.67
2019-04-21T09:39:41.851Z,2.63
2019-04-21T09:42:13.472Z,2.90
2019-04-21T09:44:48.271Z,3.00
2019-04-21T09:47:22.874Z,2.70
2019-04-21T09:49:54.432Z,2.80
2019-04-21T09:52:36.090Z,2.63
2019-04-21T09:55:07.023Z,2.83
2019-04-21T09:57:43.310Z,2.90
2019-04-21T10:00:15.235Z,2.53
2019-04-21T10:02:54.708Z,2.87
2019-04-21T10:05:19.090Z,3.20
2019-04-21T10:07:53.161Z,3.10
2019-04-21T10:10:25.451Z,2.93
2019-04-21T10:12:57.672Z,3.23
2019-04-21T10:15:30.023Z,3.10
2019-04-21T10:18:17.271Z,3.20
2019-04-21T10:20:49.691Z,3.23
2019-04-21T10:23:23.189Z,3.30
2019-04-21T10:25:56.767Z,3.20
2019-04-21T10:28:30.931Z,3.13
2019-04-21T10:31:04.724Z,3.27
2019-04-21T10:33:37.231Z,3.40
2019-04-21T10:36:09.442Z,2.77
2019-04-21T10:38:46.460Z,2.97
2019-04-21T10:41:15.721Z,3.10
2019-04-21T10:43:49.328Z,3.40
2019-04-21T10:46:22.471Z,3.20
2019-04-21T10:48:55.008Z,3.70
2019-04-21T10:51:28.660Z,3.93
2019-04-21T10:54:01.952Z,3.33
2019-04-21T10:56:38.791Z,3.43
2019-04-21T10:59:10.045Z,3.33
2019-04-21T11:01:43.024Z,3.10
2019-04-21T11:04:29.030Z,3.10
2019-04-21T11:07:04.310Z,3.83
2019-04-21T11:09:33.874Z,3.57
2019-04-21T11:12:06.278Z,3.67
2019-04-21T11:14:39.031Z,3.37
2019-04-21T11:17:12.297Z,3.77
2019-04-21T11:19:46.437Z,3.40
2019-04-21T11:22:18.917Z,3.37
2019-04-21T11:24:51.353Z,3.83
2019-04-21T11:27:24.678Z,3.00
2019-04-21T11:29:57.857Z,3.50
2019-04-21T11:32:30.779Z,3.63
2019-04-21T11:35:05.317Z,3.50
2019-04-21T11:37:37.886Z,3.60
2019-04-21T11:40:14.001Z,3.33
2019-04-21T11:42:45.962Z,3.47
2019-04-21T11:45:34.678Z,3.27
2019-04-21T11:48:26.172Z,3.10
2019-04-21T11:50:59.266Z,3.03
2019-04-21T11:53:32.787Z,3.30
2019-04-21T11:56:05.173Z,3.80
2019-04-21T11:58:39.444Z,3.47
2019-04-21T12:01:12.193Z,3.23
2019-04-21T12:03:45.445Z,3.20
2019-04-21T12:06:19.326Z,3.60
2019-04-21T12:08:54.782Z,3.17
2019-04-21T12:11:29.551Z,3.50
2019-04-21T12:14:01.882Z,3.43
2019-04-21T12:16:35.140Z,3.77
2019-04-21T12:19:08.924Z,3.70
2019-04-21T12:21:54.658Z,3.27
2019-04-21T12:24:15.790Z,3.20
2019-04-21T12:26:48.171Z,3.30
2019-04-21T12:29:20.861Z,3.67
2019-04-21T12:32:01.373Z,3.47
2019-04-21T12:37:06.784Z,3.90
2019-04-21T12:39:40.905Z,4.17
2019-04-21T12:42:14.428Z,4.27
2019-04-21T12:44:47.544Z,5.33
2019-04-21T12:47:21.635Z,4.13
2019-04-21T12:49:54.399Z,4.00
2019-04-21T12:52:27.338Z,3.83
2019-04-21T12:54:59.955Z,3.70
2019-04-21T12:57:33.258Z,4.03
2019-04-21T13:00:08.997Z,3.77
2019-04-21T13:02:41.617Z,3.50
2019-04-21T13:05:14.191Z,4.20
2019-04-21T13:07:46.630Z,4.20
2019-04-21T13:10:20.238Z,4.17
2019-04-21T13:12:56.541Z,3.57
2019-04-21T13:15:29.344Z,3.30
2019-04-21T13:18:02.680Z,3.70
2019-04-21T13:20:35.934Z,3.80
2019-04-21T13:23:08.391Z,3.10
2019-04-21T13:25:41.653Z,3.60
2019-04-21T13:28:14.721Z,3.67
2019-04-21T13:30:48.593Z,3.70
2019-04-21T13:33:21.163Z,3.67
2019-04-21T13:35:55.020Z,3.63
2019-04-21T13:38:36.332Z,3.00
2019-04-21T13:41:23.080Z,3.47
2019-04-21T13:43:43.360Z,3.97
2019-04-21T13:46:15.781Z,3.70
2019-04-21T13:48:48.428Z,3.67
2019-04-21T13:51:20.721Z,4.13
2019-04-21T13:53:53.587Z,3.50
2019-04-21T13:56:26.746Z,3.80
2019-04-21T13:59:00.115Z,3.80
2019-04-21T14:01:33.860Z,4.20
2019-04-21T14:04:07.318Z,3.60
2019-04-21T14:06:40.559Z,3.40
2019-04-21T14:09:13.988Z,4.00
2019-04-21T14:11:47.326Z,3.90
2019-04-21T14:14:22.041Z,3.83
2019-04-21T14:16:56.470Z,4.10
2019-04-21T14:19:29.199Z,3.90
2019-04-21T14:22:01.492Z,4.10
2019-04-21T14:24:35.019Z,3.50
2019-04-21T14:27:08.028Z,3.70
2019-04-21T14:29:41.627Z,4.10
2019-04-21T14:32:14.353Z,3.77
2019-04-21T14:34:49.878Z,4.60
2019-04-21T14:37:20.832Z,4.03
2019-04-21T14:40:02.943Z,4.37
2019-04-21T14:42:27.281Z,4.23
2019-04-21T14:45:00.775Z,4.00
2019-04-21T14:47:54.337Z,4.20
2019-04-21T14:50:44.327Z,4.20
2019-04-21T14:53:18.553Z,4.25
2019-04-21T14:55:51.199Z,4.10
2019-04-21T14:58:23.591Z,4.10
2019-04-21T15:01:00.012Z,3.80
2019-04-21T15:03:33.875Z,3.50
2019-04-21T15:06:07.508Z,3.90
2019-04-21T15:08:39.801Z,3.50
2019-04-21T15:11:12.071Z,3.77
2019-04-21T15:13:44.211Z,4.10
2019-04-21T15:16:16.614Z,4.00
2019-04-21T15:18:48.752Z,4.50
2019-04-21T15:21:21.612Z,4.40
2019-04-21T15:23:54.154Z,5.23
2019-04-21T15:26:28.480Z,5.70
2019-04-21T15:29:00.799Z,5.60
2019-04-21T15:31:37.730Z,5.33
2019-04-21T15:34:07.461Z,5.43
2019-04-21T15:36:40.092Z,6.70
2019-04-21T15:39:13.780Z,5.77
2019-04-21T15:41:46.332Z,5.20
2019-04-21T15:44:18.656Z,5.93
2019-04-21T15:46:52.083Z,5.90
2019-04-21T15:49:39.105Z,5.47
2019-04-21T15:52:04.126Z,6.20
2019-04-21T15:54:36.552Z,6.60
2019-04-21T15:57:11.167Z,6.17
2019-04-21T15:59:46.435Z,6.83
2019-04-21T16:02:40.409Z,8.27
2019-04-21T16:05:14.927Z,6.83
2019-04-21T16:07:47.952Z,6.43
2019-04-21T16:10:31.006Z,6.33
2019-04-21T16:12:55.879Z,6.47
2019-04-21T16:15:28.423Z,6.80
2019-04-21T16:18:01.663Z,6.93
2019-04-21T16:20:35.434Z,9.13
2019-04-21T16:23:08.560Z,6.47
2019-04-21T16:25:41.159Z,7.03
2019-04-21T16:28:13.511Z,7.17
2019-04-21T16:30:46.583Z,11.10
2019-04-21T16:33:19.031Z,9.30
2019-04-21T16:35:51.831Z,8.80
2019-04-21T16:38:24.104Z,11.03
2019-04-21T16:41:00.995Z,8.87
2019-04-21T16:43:31.116Z,8.90
2019-04-21T16:46:04.645Z,8.93
2019-04-21T16:48:37.831Z,11.70
2019-04-21T16:51:10.213Z,11.07
2019-04-21T16:53:48.059Z,11.37
2019-04-21T16:56:24.880Z,12.63
2019-04-21T16:58:59.233Z,12.40
2019-04-21T17:01:32.329Z,9.30
2019-04-21T17:04:04.740Z,7.77
2019-04-21T17:06:38.424Z,15.40
2019-04-21T17:09:12.315Z,10.70
2019-04-21T17:11:46.941Z,14.30
2019-04-21T17:14:37.084Z,14.90
2019-04-21T17:17:18.019Z,10.00
2019-04-21T17:19:29.963Z,8.30
2019-04-21T17:22:03.794Z,9.17
2019-04-21T17:24:37.937Z,11.60
2019-04-21T17:27:11.178Z,16.17
2019-04-21T17:29:43.591Z,13.30
2019-04-21T17:32:16.454Z,10.53
2019-04-21T17:34:49.999Z,8.40
2019-04-21T17:37:25.075Z,10.00
2019-04-21T17:39:58.748Z,7.27
2019-04-21T17:42:43.211Z,8.47
2019-04-21T17:45:09.038Z,7.57
2019-04-21T17:47:48.702Z,8.53
2019-04-21T17:50:21.612Z,9.17
2019-04-21T17:53:07.140Z,7.47
2019-04-21T17:55:40.603Z,7.77
2019-04-21T17:58:25.285Z,8.57
2019-04-21T18:03:52.234Z,7.97
2019-04-21T18:06:07.469Z,10.03
2019-04-21T18:08:53.756Z,8.87
2019-04-21T18:11:12.638Z,9.00
2019-04-21T18:13:39.566Z,9.10
2019-04-21T18:16:21.742Z,9.83
2019-04-21T18:18:46.639Z,16.57
2019-04-21T18:21:46.950Z,16.13
2019-04-21T18:24:21.869Z,20.73
2019-04-21T18:26:56.346Z,24.93
2019-04-21T18:29:25.530Z,23.67
2019-04-21T18:31:59.311Z,10.03
2019-04-21T18:34:43.847Z,9.13
2019-04-21T18:37:27.114Z,11.27
2019-04-21T18:40:05.635Z,8.53
2019-04-21T18:42:48.118Z,8.40
2019-04-21T18:45:52.115Z,8.70
2019-04-21T18:48:22.205Z,8.43
2019-04-21T18:51:06.393Z,8.03
2019-04-21T18:54:01.689Z,8.57
2019-04-21T18:56:20.635Z,7.90
2019-04-21T18:58:52.311Z,11.60
2019-04-21T19:01:28.203Z,9.63
2019-04-21T19:04:00.303Z,9.83
2019-04-21T19:06:45.930Z,12.10
2019-04-21T19:09:21.560Z,10.93
2019-04-21T19:12:04.240Z,10.37
2019-04-21T19:14:36.285Z,9.33
2019-04-21T19:17:39.441Z,8.87
2019-04-21T19:22:15.613Z,8.93
2019-04-21T19:24:57.569Z,9.20
2019-04-21T19:27:26.462Z,9.60
2019-04-21T19:30:24.392Z,10.13
2019-04-21T19:32:33.167Z,9.80
2019-04-21T19:34:54.869Z,9.97
2019-04-21T19:37:28.227Z,11.80
2019-04-21T19:40:12.108Z,10.67
2019-04-21T19:42:45.569Z,11.73
2019-04-21T19:45:25.551Z,13.70
2019-04-21T19:48:02.298Z,12.83
2019-04-21T19:50:37.803Z,14.03
2019-04-21T19:53:02.509Z,13.20
2019-04-21T19:55:24.385Z,13.33
2019-04-21T19:57:56.897Z,15.90
2019-04-21T20:00:30.547Z,14.83
2019-04-21T20:03:03.352Z,13.83
2019-04-21T20:05:43.234Z,14.60
2019-04-21T20:08:23.629Z,13.83
2019-04-21T20:11:00.582Z,14.27
2019-04-21T20:13:46.752Z,14.87
2019-04-21T20:16:15.071Z,15.40
2019-04-21T20:18:34.876Z,15.47
2019-04-21T20:21:01.769Z,16.80
2019-04-21T20:23:38.005Z,16.20
2019-04-21T20:26:11.531Z,16.03
2019-04-21T20:28:52.951Z,16.53
2019-04-21T20:31:37.303Z,15.77
2019-04-21T20:34:16.250Z,19.23
2019-04-21T20:36:47.632Z,16.07
2019-04-21T20:39:06.066Z,15.23
2019-04-21T20:41:49.983Z,14.97
2019-04-21T20:44:31.325Z,15.33
2019-04-21T20:47:02.340Z,15.90
2019-04-21T20:49:27.533Z,15.13
2019-04-21T20:52:15.456Z,16.67
2019-04-21T20:54:43.636Z,17.77
2019-04-21T20:57:18.871Z,18.17
2019-04-21T20:59:43.861Z,18.30
2019-04-21T21:02:30.032Z,18.07
2019-04-21T21:04:52.699Z,18.00
2019-04-21T21:10:10.723Z,17.17
2019-04-21T21:12:49.091Z,19.83
2019-04-21T21:15:10.024Z,19.70
2019-04-21T21:18:01.045Z,20.23
2019-04-21T21:20:24.878Z,20.93
2019-04-21T21:22:57.324Z,20.60
2019-04-21T21:25:40.065Z,19.83
2019-04-21T21:27:58.024Z,19.30
2019-04-21T21:30:35.179Z,20.37
2019-04-21T21:33:17.173Z,21.80
2019-04-21T21:35:41.144Z,19.20
2019-04-21T21:38:25.302Z,18.80
2019-04-21T21:40:55.313Z,18.27
2019-04-21T21:43:19.883Z,19.03
2019-04-21T21:45:55.619Z,19.23
2019-04-21T21:48:38.063Z,19.43
2019-04-21T21:51:09.467Z,21.13
2019-04-21T21:53:33.825Z,20.50
2019-04-21T21:56:06.820Z,21.37
2019-04-21T21:58:42.519Z,19.77
2019-04-21T22:01:15.437Z,19.70
2019-04-21T22:04:01.687Z,18.97
2019-04-21T22:06:34.537Z,19.27
2019-04-21T22:08:58.548Z,18.13
2019-04-21T22:11:31.790Z,18.73
2019-04-21T22:14:08.476Z,19.03
2019-04-21T22:16:51.753Z,21.37
2019-04-21T22:19:31.075Z,22.73
2019-04-21T22:22:08.039Z,21.17
2019-04-21T22:24:38.913Z,20.20
2019-04-21T22:26:59.371Z,20.37
2019-04-21T22:29:36.317Z,18.70
2019-04-21T22:32:11.399Z,19.53
2019-04-21T22:34:48.731Z,18.97
2019-04-21T22:45:41.099Z,14.83
2019-04-21T22:48:19.225Z,14.50
2019-04-21T22:50:48.578Z,14.30
2019-04-21T22:53:21.398Z,14.77
2019-04-21T22:55:57.236Z,13.70
2019-04-21T22:58:33.482Z,14.53
2019-04-21T23:01:04.240Z,13.50
2019-04-21T23:03:40.119Z,12.80
2019-04-21T23:06:19.202Z,13.73
2019-04-21T23:08:46.133Z,13.10
2019-04-21T23:11:21.431Z,13.07
2019-04-21T23:14:02.508Z,13.77
2019-04-21T23:16:35.586Z,12.60
2019-04-21T23:19:23.718Z,13.67
2019-04-21T23:21:59.578Z,12.63
2019-04-21T23:24:34.921Z,13.23
2019-04-21T23:27:05.850Z,12.40
2019-04-21T23:29:53.819Z,12.17
2019-04-21T23:32:16.191Z,13.20
2019-04-21T23:34:39.842Z,12.30
2019-04-21T23:37:16.637Z,13.13
2019-04-21T23:39:47.592Z,13.53
2019-04-21T23:42:27.223Z,13.07
2019-04-21T23:44:58.029Z,13.03
2019-04-21T23:47:41.872Z,14.40
2019-04-21T23:50:23.365Z,11.83
2019-04-21T23:52:41.587Z,12.07
2019-04-21T23:55:14.071Z,12.73
2019-04-21T23:57:48.543Z,11.80
